Time;durP1;ratioP1;P1;durP2;ratioP2;P2;SDS_P1;SDS_P2;PMS_P1;PMS_P2;Temp;Humidity;BMP_temperature;BMP_pressure;BME280_temperature;BME280_humidity;BME280_pressure;Samples;Min_cycle;Max_cycle;Signal;HPM_P1;HPM_P2
2023/02/20 00:01:59;;;;;;;4.22;3.08;;;;;;;7.54;67.83;101310.91;4967004;28;20059;-63
2023/02/20 00:04:30;;;;;;;5.05;3.15;;;;;;;7.49;67.89;101310.88;4970890;28;20061;-61
2023/02/20 00:06:57;;;;;;;4.28;3.00;;;;;;;7.45;68.73;101305.03;4969405;28;20058;-61
2023/02/20 00:09:28;;;;;;;4.25;3.20;;;;;;;7.47;69.06;101307.53;4970360;28;20058;-61
2023/02/20 00:11:59;;;;;;;3.92;3.33;;;;;;;7.43;69.22;101298.97;4973669;28;20481;-61
2023/02/20 00:14:26;;;;;;;3.25;2.70;;;;;;;7.45;68.03;101298.66;4978958;28;20058;-61
2023/02/20 00:16:55;;;;;;;3.80;3.08;;;;;;;7.43;69.53;101298.09;4975698;28;20062;-60
2023/02/20 00:19:26;;;;;;;3.90;3.20;;;;;;;7.43;68.41;101289.78;4976635;28;20066;-61
2023/02/20 00:21:54;;;;;;;3.88;2.83;;;;;;;7.40;69.02;101284.81;4976688;28;20057;-61
2023/02/20 00:24:22;;;;;;;4.22;3.50;;;;;;;7.38;69.22;101281.47;4976609;28;20054;-61
2023/02/20 00:26:51;;;;;;;4.28;3.10;;;;;;;7.35;69.89;101273.69;4977157;28;20119;-61
2023/02/20 00:29:20;;;;;;;6.60;3.80;;;;;;;7.34;69.06;101266.50;4976656;28;20050;-61
2023/02/20 00:31:52;;;;;;;5.88;4.20;;;;;;;7.27;69.10;101264.81;4969357;28;20054;-61
2023/02/20 00:34:24;;;;;;;5.70;4.03;;;;;;;7.22;70.05;101256.47;4969480;28;20050;-61
2023/02/20 00:36:54;;;;;;;5.85;4.30;;;;;;;7.22;70.60;101259.25;4970599;28;20054;-61
2023/02/20 00:39:25;;;;;;;6.60;4.22;;;;;;;7.21;70.95;101257.59;4968084;28;20055;-61
2023/02/20 00:41:54;;;;;;;9.48;5.93;;;;;;;7.24;70.79;101259.81;4976582;28;20055;-61
2023/02/20 00:44:22;;;;;;;8.40;5.38;;;;;;;7.27;70.38;101255.69;4976288;28;20414;-61
2023/02/20 00:46:59;;;;;;;7.38;5.38;;;;;;;7.29;70.08;101253.47;4968221;28;20051;-61
2023/02/20 00:49:27;;;;;;;8.75;5.93;;;;;;;7.32;70.44;101250.97;4966423;28;20051;-61
2023/02/20 00:51:57;;;;;;;9.07;6.00;;;;;;;7.27;71.03;101247.38;4968119;28;20061;-61
2023/02/20 00:54:33;;;;;;;9.20;6.05;;;;;;;7.40;70.23;101246.00;4967986;28;20054;-61
2023/02/20 00:57:00;;;;;;;9.43;6.68;;;;;;;7.36;70.06;101251.25;4965993;28;20055;-60
2023/02/20 00:59:28;;;;;;;9.13;6.22;;;;;;;7.40;70.70;101246.00;4972309;28;20055;-61
2023/02/20 01:01:56;;;;;;;11.77;7.35;;;;;;;7.42;71.35;101249.34;4975928;28;20055;-62
2023/02/20 01:04:24;;;;;;;10.00;6.90;;;;;;;7.45;71.51;101240.44;4969116;28;20069;-61
2023/02/20 01:06:56;;;;;;;10.20;7.00;;;;;;;7.39;70.26;101236.88;4969242;28;20392;-60
2023/02/20 01:09:29;;;;;;;11.57;7.25;;;;;;;7.40;71.35;101240.47;4979385;28;20050;-61
2023/02/20 01:11:57;;;;;;;11.32;7.45;;;;;;;7.42;70.98;101229.94;4995074;28;20047;-60
2023/02/20 01:14:28;;;;;;;10.73;7.43;;;;;;;7.42;71.00;101232.69;4978824;28;20051;-61
2023/02/20 01:17:04;;;;;;;13.48;8.57;;;;;;;7.40;71.72;101232.97;4971741;28;20840;-60
2023/02/20 01:19:32;;;;;;;12.27;8.70;;;;;;;7.48;71.96;101220.53;4965118;28;20420;-61
2023/02/20 01:22:05;;;;;;;13.23;9.25;;;;;;;7.53;70.72;101214.97;4956356;29;20070;-60
2023/02/20 01:24:32;;;;;;;15.68;9.75;;;;;;;7.51;70.80;101197.78;4965531;28;20054;-61
2023/02/20 01:27:06;;;;;;;13.52;9.77;;;;;;;7.50;70.75;101196.13;4965843;28;20073;-61
2023/02/20 01:29:34;;;;;;;14.98;9.85;;;;;;;7.53;72.00;101203.88;4972749;28;20058;-61
2023/02/20 01:32:07;;;;;;;16.58;10.40;;;;;;;7.58;72.03;101201.13;4975640;28;20071;-61
2023/02/20 01:34:50;;;;;;;15.90;10.68;;;;;;;7.66;70.95;101205.25;4970158;28;20047;-61
2023/02/20 01:37:22;;;;;;;15.98;10.93;;;;;;;7.69;70.94;101205.56;4967222;28;20051;-59
2023/02/20 01:39:58;;;;;;;15.80;10.88;;;;;;;7.67;71.00;101190.31;4966440;28;20061;-61
2023/02/20 01:42:34;;;;;;;17.23;10.55;;;;;;;7.73;70.42;101190.03;4970270;28;20057;-61
2023/02/20 01:48:20;;;;;;;17.85;11.73;;;;;;;7.82;70.59;101184.75;4942653;28;20051;-60
2023/02/20 01:50:49;;;;;;;;;;;;;;;7.83;70.10;101186.44;4975075;28;20053;-61
2023/02/20 01:53:22;;;;;;;18.50;11.00;;;;;;;7.83;70.51;101168.94;4991752;28;19928;-60
2023/02/20 01:55:52;;;;;;;14.90;10.93;;;;;;;7.87;71.14;101183.91;4994465;28;20225;-60
2023/02/20 01:58:23;;;;;;;16.02;10.77;;;;;;;7.89;71.29;101176.97;4969308;28;20069;-60
2023/02/20 02:00:54;;;;;;;15.02;10.43;;;;;;;7.94;70.62;101173.38;4967756;28;20046;-60
2023/02/20 02:03:26;;;;;;;15.23;10.68;;;;;;;8.00;70.42;101175.03;4972985;28;20047;-61
2023/02/20 02:06:03;;;;;;;14.65;10.30;;;;;;;8.08;70.21;101163.38;4974569;28;20055;-62
2023/02/20 02:08:37;;;;;;;14.68;10.30;;;;;;;8.19;69.99;101168.88;4961917;28;20476;-61
2023/02/20 02:11:17;;;;;;;13.48;9.85;;;;;;;8.24;70.08;101166.09;4971411;28;20054;-62
2023/02/20 02:13:45;;;;;;;13.98;9.43;;;;;;;8.25;69.44;101157.50;4968946;28;20067;-61
2023/02/20 02:16:26;;;;;;;15.38;10.35;;;;;;;8.30;69.37;101143.59;4967729;28;20057;-61
2023/02/20 02:19:04;;;;;;;14.18;9.30;;;;;;;8.25;68.30;101143.63;4965585;28;20062;-60
2023/02/20 02:22:06;;;;;;;13.05;9.30;;;;;;;8.17;68.54;101130.31;4969267;28;20051;-61
2023/02/20 02:25:10;;;;;;;13.30;8.98;;;;;;;8.14;69.85;101131.69;4988641;28;20061;-61
2023/02/20 02:28:16;;;;;;;12.70;9.93;;;;;;;8.05;68.43;101116.75;4978003;28;20057;-60
2023/02/20 02:31:31;;;;;;;13.70;9.88;;;;;;;7.96;70.00;101120.38;4967422;28;20050;-60
2023/02/20 02:34:16;;;;;;;13.45;8.70;;;;;;;7.88;70.14;101111.53;4967564;28;20069;-60
2023/02/20 02:36:53;;;;;;;13.80;9.38;;;;;;;7.95;69.22;101100.13;4965291;28;20058;-61
2023/02/20 02:39:30;;;;;;;12.48;9.05;;;;;;;8.00;69.35;101086.25;4967482;28;20053;-61
2023/02/20 02:42:08;;;;;;;15.25;9.73;;;;;;;7.97;70.26;101097.91;4973102;28;20054;-61
2023/02/20 02:44:45;;;;;;;12.20;8.77;;;;;;;8.02;69.07;101081.25;4974301;28;20077;-61
2023/02/20 02:47:19;;;;;;;13.43;9.63;;;;;;;8.04;69.73;101079.03;4974747;28;20506;-61
2023/02/20 02:49:51;;;;;;;15.02;9.10;;;;;;;7.93;69.38;101077.38;4974212;28;20054;-61
2023/02/20 02:55:22;;;;;;;13.45;9.73;;;;;;;7.91;69.00;101068.50;5131417;27;21040;-60
2023/02/20 02:57:50;;;;;;;13.82;8.98;;;;;;;7.91;69.04;101071.28;5132239;27;20055;-60
2023/02/20 03:00:22;;;;;;;16.17;10.35;;;;;;;7.82;70.36;101081.31;5136241;27;20047;-61
2023/02/20 03:02:57;;;;;;;15.07;9.73;;;;;;;7.79;70.44;101076.31;5133209;27;20055;-60
2023/02/20 03:05:39;;;;;;;16.50;10.27;;;;;;;7.80;70.36;101083.53;5133338;27;20050;-60
2023/02/20 03:08:21;;;;;;;17.63;10.70;;;;;;;7.67;70.76;101071.91;5132741;27;20056;-60
2023/02/20 03:10:53;;;;;;;16.95;10.18;;;;;;;7.63;70.61;101076.34;5134962;27;20047;-60
2023/02/20 03:16:41;;;;;;;18.05;11.20;;;;;;;7.61;71.13;101058.34;5140829;27;20050;-61
2023/02/20 03:19:13;;;;;;;13.80;9.00;;;;;;;7.61;70.73;101064.72;5143453;27;20479;-60
2023/02/20 03:21:45;;;;;;;15.30;9.45;;;;;;;7.51;71.16;101073.03;5129436;27;20495;-60
2023/02/20 03:27:00;;;;;;;13.85;9.05;;;;;;;7.47;71.77;101055.31;5115028;28;20066;-60
2023/02/20 03:29:36;;;;;;;16.02;10.18;;;;;;;7.51;70.83;101053.63;5121823;28;20051;-61
2023/02/20 03:43:53;;;;;;;12.07;8.63;;;;;;;7.39;70.63;101056.72;5116736;28;20062;-60
2023/02/20 03:46:32;;;;;;;14.93;8.10;;;;;;;7.40;71.15;101060.31;5118212;28;20051;-62
2023/02/20 03:49:08;;;;;;;13.45;8.40;;;;;;;7.47;70.71;101058.06;5113508;28;20051;-60
2023/02/20 03:51:36;;;;;;;15.13;8.98;;;;;;;7.45;70.75;101055.56;5115656;28;20424;-60
2023/02/20 03:56:56;;;;;;;12.63;8.48;;;;;;;7.48;70.93;101066.13;5043296;28;20048;-60
2023/02/20 03:59:30;;;;;;;14.63;8.30;;;;;;;7.43;70.89;101041.19;5051527;28;20052;-60
2023/02/20 04:02:04;;;;;;;15.23;8.85;;;;;;;7.46;71.33;101045.34;5167284;27;20039;-60
2023/02/20 04:04:38;;;;;;;12.98;8.85;;;;;;;7.45;70.69;101050.03;5161150;27;20053;-60
2023/02/20 04:07:12;;;;;;;13.70;8.75;;;;;;;7.41;71.15;101039.78;5157557;27;20054;-60
2023/02/20 04:09:46;;;;;;;14.60;9.38;;;;;;;7.46;71.45;101046.16;5136283;27;20495;-63
2023/02/20 04:12:21;;;;;;;18.23;9.93;;;;;;;7.49;71.44;101044.75;5143603;27;20058;-61
2023/02/20 04:14:52;;;;;;;13.57;8.80;;;;;;;7.42;71.45;101049.78;5143562;27;20367;-60
2023/02/20 04:17:27;;;;;;;14.05;8.80;;;;;;;7.48;71.68;101043.13;5142379;27;20053;-60
2023/02/20 04:19:57;;;;;;;14.32;9.55;;;;;;;7.38;70.96;101043.13;5141052;27;20047;-61
2023/02/20 04:22:31;;;;;;;14.88;9.35;;;;;;;7.34;72.16;101042.84;5141947;27;20043;-60
2023/02/20 04:25:14;;;;;;;17.23;10.27;;;;;;;7.35;71.46;101046.44;5156422;27;20418;-60
2023/02/20 04:27:42;;;;;;;14.02;9.40;;;;;;;7.36;71.78;101040.63;5140258;27;20051;-60
2023/02/20 04:30:15;;;;;;;17.25;8.70;;;;;;;7.36;71.45;101048.13;5140924;27;20051;-60
2023/02/20 04:32:44;;;;;;;13.98;9.63;;;;;;;7.34;71.88;101048.38;5138586;27;20043;-62
2023/02/20 04:35:16;;;;;;;15.30;9.43;;;;;;;7.40;71.33;101032.59;5156603;27;20422;-60
2023/02/20 04:37:44;;;;;;;16.20;9.20;;;;;;;7.42;71.11;101044.22;5156924;27;20065;-60
2023/02/20 04:43:00;;;;;;;15.13;8.70;;;;;;;7.37;71.59;101042.31;5139165;27;20403;-61
2023/02/20 04:45:32;;;;;;;17.17;8.63;;;;;;;7.37;71.39;101025.69;5142193;27;20058;-60
2023/02/20 04:48:13;;;;;;;14.98;8.25;;;;;;;7.36;71.75;101024.00;5145322;27;20062;-60
2023/02/20 04:50:41;;;;;;;14.10;7.90;;;;;;;7.39;71.11;101017.91;5156362;27;20051;-60
2023/02/20 04:53:11;;;;;;;15.50;8.27;;;;;;;7.43;70.69;101010.72;5156465;27;20398;-60
2023/02/20 04:55:44;;;;;;;16.10;7.82;;;;;;;7.34;70.80;101006.81;5154215;27;20065;-60
2023/02/20 04:58:12;;;;;;;11.48;8.10;;;;;;;7.31;70.96;101002.69;5147157;27;20061;-60
2023/02/20 05:00:45;;;;;;;13.43;7.53;;;;;;;7.41;70.87;100995.44;5145111;27;20053;-62
2023/02/20 05:03:16;;;;;;;12.00;6.90;;;;;;;7.37;70.50;100991.56;5144560;27;20505;-60
2023/02/20 05:05:49;;;;;;;11.25;6.18;;;;;;;7.46;71.39;100998.22;5138895;27;20042;-60
2023/02/20 05:08:28;;;;;;;13.60;6.82;;;;;;;7.45;70.83;100988.22;5139664;27;20054;-60
2023/02/20 05:11:19;;;;;;;10.43;6.15;;;;;;;7.32;70.28;101001.56;5140563;27;20050;-61
2023/02/20 05:13:49;;;;;;;10.88;6.53;;;;;;;7.46;70.38;100987.13;5141945;27;20053;-60
2023/02/20 05:16:19;;;;;;;11.10;6.43;;;;;;;7.54;70.29;100986.56;5146196;27;20039;-60
2023/02/20 05:18:46;;;;;;;10.45;6.20;;;;;;;7.61;70.61;100978.75;5141618;27;20046;-60
2023/02/20 05:24:08;;;;;;;10.48;5.60;;;;;;;7.57;69.51;100974.06;5147170;27;20434;-60
2023/02/20 05:26:36;;;;;;;12.73;6.32;;;;;;;7.58;68.88;100976.56;5148977;27;20058;-60
2023/02/20 05:29:04;;;;;;;9.00;5.68;;;;;;;7.60;70.00;100968.81;5151133;27;20055;-61
2023/02/20 05:31:33;;;;;;;10.70;5.65;;;;;;;7.66;70.05;100972.38;5146124;27;20059;-61
2023/02/20 05:34:01;;;;;;;8.45;5.68;;;;;;;7.76;68.87;100977.88;5149423;27;20050;-59
2023/02/20 05:36:32;;;;;;;8.20;5.90;;;;;;;7.72;69.31;100977.59;5153753;27;20058;-61
2023/02/20 05:38:59;;;;;;;9.10;5.45;;;;;;;7.66;69.89;100975.13;5151436;27;20042;-61
2023/02/20 05:41:27;;;;;;;10.63;5.28;;;;;;;7.64;69.22;100985.69;5138622;27;20050;-61
2023/02/20 05:44:00;;;;;;;11.38;5.93;;;;;;;7.60;69.66;100974.34;5142525;27;20054;-61
2023/02/20 05:46:47;;;;;;;10.00;6.10;;;;;;;7.68;69.08;100976.50;5141261;27;20047;-61
2023/02/20 05:49:20;;;;;;;11.40;6.15;;;;;;;7.66;70.26;100973.19;5139692;27;20388;-61
2023/02/20 05:51:49;;;;;;;9.88;5.82;;;;;;;7.65;69.56;100974.31;5146212;27;20055;-60
2023/02/20 05:54:16;;;;;;;9.43;5.43;;;;;;;7.72;70.17;100968.47;5153176;27;20055;-62
2023/02/20 05:57:09;;;;;;;10.02;6.03;;;;;;;7.71;70.43;100962.09;5141046;27;20054;-60
2023/02/20 05:59:36;;;;;;;9.10;5.88;;;;;;;7.71;68.93;100959.31;5142137;27;20054;-61
2023/02/20 06:02:11;;;;;;;10.27;6.18;;;;;;;7.76;69.73;100949.31;5143973;27;20153;-60
2023/02/20 06:05:02;;;;;;;9.75;5.82;;;;;;;7.71;69.90;100953.78;5142639;27;20058;-61
2023/02/20 06:07:50;;;;;;;9.32;5.35;;;;;;;7.69;69.90;100941.31;5141231;27;20050;-61
2023/02/20 06:10:19;;;;;;;10.05;5.55;;;;;;;7.68;69.33;100940.47;5144849;27;20050;-60
2023/02/20 06:12:47;;;;;;;11.77;6.18;;;;;;;7.72;70.20;100946.28;5144696;27;20074;-61
2023/02/20 06:15:15;;;;;;;11.50;6.18;;;;;;;7.74;69.81;100941.28;5141739;27;20039;-61
2023/02/20 06:20:29;;;;;;;9.13;5.38;;;;;;;7.72;68.70;100947.09;5109778;27;20046;-61
2023/02/20 06:22:56;;;;;;;9.05;5.25;;;;;;;7.68;69.35;100946.00;5149921;27;20475;-61
2023/02/20 06:25:24;;;;;;;10.13;5.60;;;;;;;7.72;69.36;100949.06;5143716;27;20053;-61
2023/02/20 06:27:54;;;;;;;9.15;5.15;;;;;;;7.71;68.77;100945.47;5142282;27;20053;-61
2023/02/20 06:30:25;;;;;;;9.20;5.38;;;;;;;7.71;68.56;100944.63;5142318;27;20046;-61
2023/02/20 06:32:54;;;;;;;10.45;5.85;;;;;;;7.78;69.00;100941.56;5138938;27;20062;-61
2023/02/20 06:35:21;;;;;;;9.00;5.32;;;;;;;7.71;69.48;100942.69;5140247;27;20043;-61
2023/02/20 06:37:49;;;;;;;12.95;5.57;;;;;;;7.69;69.57;100931.06;5138845;27;20065;-61
2023/02/20 06:40:22;;;;;;;11.38;5.10;;;;;;;7.73;68.37;100946.00;5145232;27;20050;-60
2023/02/20 06:42:50;;;;;;;9.48;5.13;;;;;;;7.70;68.95;100940.19;5148668;27;20481;-61
2023/02/20 06:45:33;;;;;;;10.25;5.38;;;;;;;7.72;69.06;100949.88;5154251;27;20053;-61
2023/02/20 06:48:05;;;;;;;10.55;4.93;;;;;;;7.72;69.16;100944.34;5138189;27;20518;-60
2023/02/20 06:50:54;;;;;;;11.32;5.45;;;;;;;7.67;68.47;100957.41;5154291;27;20061;-61
2023/02/20 06:53:21;;;;;;;10.98;5.47;;;;;;;7.77;69.23;100962.06;5139740;27;20046;-60
2023/02/20 06:55:49;;;;;;;8.98;5.43;;;;;;;7.66;69.09;100973.19;5139282;27;20047;-65
2023/02/20 06:58:19;;;;;;;10.77;5.93;;;;;;;7.65;68.71;100981.81;5143216;27;20042;-59
2023/02/20 07:00:46;;;;;;;8.95;5.60;;;;;;;7.70;69.14;100990.09;5144331;27;20391;-61
2023/02/20 07:03:15;;;;;;;9.00;5.50;;;;;;;7.80;68.52;100998.38;5142926;27;20050;-61
2023/02/20 07:05:43;;;;;;;14.27;6.33;;;;;;;7.83;68.47;101005.31;5153932;27;20054;-61
2023/02/20 07:08:16;;;;;;;10.30;5.82;;;;;;;8.00;68.25;101019.69;5149304;27;20047;-61
2023/02/20 07:10:44;;;;;;;10.60;6.47;;;;;;;8.03;67.12;101030.19;5139624;27;20306;-61
2023/02/20 07:13:11;;;;;;;10.80;5.90;;;;;;;8.14;68.05;101023.47;5138656;27;20070;-61
2023/02/20 07:15:39;;;;;;;10.77;6.50;;;;;;;8.22;67.73;101022.06;5138419;27;20039;-61
2023/02/20 07:18:11;;;;;;;12.65;7.00;;;;;;;8.19;67.49;101019.03;5135062;27;20055;-61
2023/02/20 07:20:41;;;;;;;9.05;6.88;;;;;;;8.16;67.05;101011.28;5147917;27;20051;-61
2023/02/20 07:23:28;;;;;;;9.35;6.57;;;;;;;8.22;67.42;101015.69;5145539;27;20054;-61
2023/02/20 07:25:58;;;;;;;9.00;6.70;;;;;;;8.31;67.27;101011.19;5139799;27;20050;-61
2023/02/20 07:28:27;;;;;;;15.38;8.10;;;;;;;8.17;67.54;101010.16;5154291;27;20051;-61
2023/02/20 07:30:58;;;;;;;11.38;7.20;;;;;;;8.31;66.87;101011.19;5140662;27;20050;-61
2023/02/20 07:33:56;;;;;;;10.98;7.85;;;;;;;8.24;67.80;101016.25;5141771;27;20053;-61
2023/02/20 07:36:30;;;;;;;10.57;7.25;;;;;;;8.32;67.77;101013.69;5145811;27;20065;-61
2023/02/20 07:39:03;;;;;;;11.73;8.23;;;;;;;8.33;66.35;101011.72;5139625;27;20595;-61
2023/02/20 07:41:35;;;;;;;10.07;7.63;;;;;;;8.44;67.41;101023.63;5139563;27;20410;-61
2023/02/20 07:44:03;;;;;;;11.32;8.07;;;;;;;8.44;66.53;101018.94;5140565;27;20066;-61
2023/02/20 07:46:32;;;;;;;14.10;8.73;;;;;;;8.31;66.91;101003.69;5139318;27;20043;-46
2023/02/20 07:49:09;;;;;;;11.48;8.40;;;;;;;8.23;69.83;101026.50;5142004;27;20047;-44
2023/02/20 07:51:43;;;;;;;13.98;8.68;;;;;;;8.47;69.59;101012.78;5144454;27;20050;-45
2023/02/20 07:54:13;;;;;;;12.73;8.13;;;;;;;8.57;67.81;101017.47;5141390;27;20419;-64
2023/02/20 07:56:41;;;;;;;11.80;8.88;;;;;;;8.56;66.15;101017.75;5151501;27;20149;-64
2023/02/20 07:59:08;;;;;;;11.95;8.65;;;;;;;8.65;64.69;101024.34;5150702;27;20051;-64
2023/02/20 08:01:36;;;;;;;10.30;7.80;;;;;;;8.67;65.32;101022.97;5145990;27;20050;-64
2023/02/20 08:04:14;;;;;;;;;;;;;;;;;;;;;
2023/02/20 08:06:43;;;;;;;12.70;8.75;;;;;;;8.93;65.03;101023.59;5142074;27;20054;-66
2023/02/20 08:09:11;;;;;;;12.00;8.18;;;;;;;9.05;64.95;101026.00;5141958;27;20062;-64
2023/02/20 08:11:43;;;;;;;11.18;8.00;;;;;;;9.01;63.40;101029.63;5144370;27;20046;-65
2023/02/20 08:14:34;;;;;;;;;;;;;;;;;;;;;
2023/02/20 08:17:04;;;;;;;10.80;7.57;;;;;;;9.16;63.57;101025.91;5149626;27;20063;-64
2023/02/20 08:19:35;;;;;;;9.93;7.83;;;;;;;9.35;62.15;101026.84;5147350;27;20043;-65
2023/02/20 08:22:07;;;;;;;11.25;8.10;;;;;;;9.54;62.36;101033.31;5149862;27;20054;-64
2023/02/20 08:24:35;;;;;;;9.45;8.40;;;;;;;9.69;61.22;101028.72;5138411;27;20055;-64
2023/02/20 08:27:06;;;;;;;12.57;8.02;;;;;;;9.59;60.81;101024.09;5147554;27;20047;-64
2023/02/20 08:29:33;;;;;;;11.45;8.05;;;;;;;9.55;61.14;101026.66;5152284;27;20054;-66
2023/02/20 08:32:01;;;;;;;12.55;8.27;;;;;;;9.72;60.81;101017.84;5145003;27;20522;-68
2023/02/20 08:34:29;;;;;;;12.25;8.15;;;;;;;9.72;60.51;101031.75;5145264;27;20058;-64
2023/02/20 08:36:57;;;;;;;14.68;8.93;;;;;;;9.35;61.42;101038.78;5149581;27;20054;-63
2023/02/20 08:39:29;;;;;;;15.02;9.98;;;;;;;9.23;61.17;101032.78;5141596;27;20047;-62
2023/02/20 08:41:59;;;;;;;12.68;8.60;;;;;;;9.05;62.60;101036.25;5136665;27;20062;-64
2023/02/20 08:44:28;;;;;;;12.65;9.02;;;;;;;9.06;62.45;101027.66;5148812;27;20047;-63
2023/02/20 08:47:04;;;;;;;13.63;9.47;;;;;;;9.21;62.18;101023.91;5151616;27;20050;-63
2023/02/20 08:49:46;;;;;;;12.13;8.90;;;;;;;9.26;63.21;101026.66;5150464;27;20086;-65
2023/02/20 08:52:14;;;;;;;11.20;8.25;;;;;;;9.21;61.48;101023.91;5151250;27;20062;-64
2023/02/20 08:55:14;;;;;;;15.32;8.68;;;;;;;9.29;62.33;101008.56;5141855;27;20054;-62
2023/02/20 08:58:00;;;;;;;12.93;9.02;;;;;;;9.96;61.81;101000.31;5127043;27;20487;-61
2023/02/20 09:00:39;;;;;;;13.82;8.27;;;;;;;9.97;60.19;100999.16;5149264;27;20427;-61
2023/02/20 09:06:09;;;;;;;11.95;8.43;;;;;;;9.77;60.17;100993.88;5126780;27;20050;-61
2023/02/20 09:08:37;;;;;;;10.27;8.13;;;;;;;9.86;61.18;101003.22;5148880;27;20047;-61
2023/02/20 09:11:09;;;;;;;13.73;8.93;;;;;;;9.82;60.35;100999.38;5144877;27;20061;-62
2023/02/20 09:13:42;;;;;;;10.35;8.70;;;;;;;9.53;61.13;101008.56;5141550;27;20061;-61
2023/02/20 09:16:10;;;;;;;15.88;8.98;;;;;;;9.46;61.20;100985.88;5150572;27;20066;-61
2023/02/20 09:18:39;;;;;;;14.38;9.57;;;;;;;9.37;62.20;100990.41;5145178;27;20062;-61
2023/02/20 09:23:51;;;;;;;11.43;9.30;;;;;;;9.54;61.63;100988.00;5143059;27;20059;-62
2023/02/20 09:26:23;;;;;;;14.95;9.02;;;;;;;9.10;63.11;100989.00;5143244;27;20055;-61
2023/02/20 09:28:55;;;;;;;10.18;8.65;;;;;;;8.96;63.32;100988.84;5143126;27;20043;-62
2023/02/20 09:31:26;;;;;;;12.02;8.77;;;;;;;9.11;62.92;100991.50;5141359;27;20066;-62
2023/02/20 09:34:00;;;;;;;16.63;9.98;;;;;;;8.99;64.31;100987.41;5138054;27;20058;-61
2023/02/20 09:36:28;;;;;;;12.82;9.35;;;;;;;8.81;63.26;100995.34;5131062;27;20047;-62
2023/02/20 09:38:56;;;;;;;15.07;9.70;;;;;;;8.71;64.55;100990.72;5144036;27;20046;-62
2023/02/20 09:41:42;;;;;;;13.48;10.60;;;;;;;8.85;65.27;100985.31;5146471;27;20046;-61
2023/02/20 09:44:25;;;;;;;16.52;9.85;;;;;;;8.87;64.32;100980.28;5150559;27;20062;-61
2023/02/20 09:47:02;;;;;;;15.23;9.63;;;;;;;8.83;64.38;100995.06;5151942;27;20051;-61
2023/02/20 09:49:38;;;;;;;11.70;9.65;;;;;;;8.79;65.29;100996.75;5146937;27;20047;-62
2023/02/20 09:52:13;;;;;;;14.38;10.40;;;;;;;8.54;65.25;100991.09;5148052;27;20046;-61
2023/02/20 09:54:53;;;;;;;15.50;9.75;;;;;;;8.43;66.00;100986.72;5138770;27;20051;-61
2023/02/20 10:00:22;;;;;;;16.10;10.30;;;;;;;8.52;65.62;101007.22;5116249;27;20085;-62
2023/02/20 10:03:00;;;;;;;19.73;10.90;;;;;;;8.60;65.21;101003.00;5149001;27;21009;-61
2023/02/20 10:05:30;;;;;;;13.13;10.23;;;;;;;8.66;65.84;100996.28;5146481;27;20104;-62
2023/02/20 10:07:57;;;;;;;;;;;;;;;8.77;65.39;100990.66;5145411;27;20113;-62
2023/02/20 10:10:29;;;;;;;17.50;11.57;;;;;;;8.56;65.84;100996.34;5146882;27;20371;-62
2023/02/20 10:13:16;;;;;;;16.60;12.02;;;;;;;8.50;65.80;100991.94;5143822;27;20050;-62
2023/02/20 10:15:50;;;;;;;15.25;12.30;;;;;;;8.70;66.18;100993.78;5143228;27;20051;-61
2023/02/20 10:18:24;;;;;;;16.58;11.50;;;;;;;8.82;65.62;100985.06;5137497;27;20050;-62
2023/02/20 10:21:00;;;;;;;15.77;12.00;;;;;;;8.61;65.71;100995.50;5140369;27;20053;-62
2023/02/20 10:23:42;;;;;;;15.38;12.18;;;;;;;8.60;65.58;100978.00;5140620;27;20050;-65
2023/02/20 10:26:19;;;;;;;16.08;12.43;;;;;;;8.46;66.87;100985.31;5141672;27;20062;-61
2023/02/20 10:28:52;;;;;;;14.98;11.20;;;;;;;8.67;66.27;100981.31;5140326;27;20055;-62
2023/02/20 10:31:33;;;;;;;17.05;11.80;;;;;;;8.55;66.95;100969.72;5142218;27;20073;-61
2023/02/20 10:34:14;;;;;;;17.05;12.20;;;;;;;8.77;66.02;100974.81;5151000;27;20050;-62
2023/02/20 10:36:50;;;;;;;16.23;11.63;;;;;;;8.71;66.27;100975.97;5148727;27;20055;-62
2023/02/20 10:39:20;;;;;;;19.40;12.50;;;;;;;8.87;67.46;100974.75;5150590;27;20054;-61
2023/02/20 10:41:55;;;;;;;16.35;12.82;;;;;;;8.90;66.63;100979.72;5140565;27;20058;-61
2023/02/20 10:44:28;;;;;;;16.00;12.43;;;;;;;8.93;65.82;100954.13;5147084;27;20046;-61
2023/02/20 10:47:00;;;;;;;19.92;12.88;;;;;;;8.79;66.80;100947.59;5145701;27;20046;-61
2023/02/20 10:49:37;;;;;;;15.35;12.25;;;;;;;8.75;66.08;100954.84;5143409;27;20047;-62
2023/02/20 10:52:08;;;;;;;16.98;11.55;;;;;;;8.85;66.97;100948.38;5138083;27;20054;-61
2023/02/20 10:54:41;;;;;;;16.55;11.40;;;;;;;8.97;67.07;100953.56;5134994;27;20078;-61
2023/02/20 10:57:13;;;;;;;18.48;13.07;;;;;;;9.02;65.91;100967.41;5137038;27;21620;-61
2023/02/20 10:59:49;;;;;;;18.45;12.73;;;;;;;9.09;66.14;100974.28;5142346;27;20047;-61
2023/02/20 11:02:19;;;;;;;16.83;12.02;;;;;;;9.09;66.17;100970.66;5141452;27;20077;-61
2023/02/20 11:04:53;;;;;;;15.63;11.70;;;;;;;8.94;66.21;100958.59;5153579;27;20063;-61
2023/02/20 11:07:25;;;;;;;18.45;12.35;;;;;;;9.29;67.00;100953.78;5144608;27;20367;-61
2023/02/20 11:09:53;;;;;;;18.45;12.50;;;;;;;9.43;65.17;100944.72;5133974;27;20077;-62
2023/02/20 11:12:32;;;;;;;17.90;12.45;;;;;;;9.66;65.31;100934.72;5141875;27;20112;-62
2023/02/20 11:15:06;;;;;;;19.17;13.40;;;;;;;9.40;65.79;100928.66;5139920;27;20047;-60
2023/02/20 11:17:40;;;;;;;17.63;12.73;;;;;;;9.37;65.20;100935.63;5142010;27;20066;-61
2023/02/20 11:20:45;;;;;;;20.95;14.00;;;;;;;9.47;65.90;100918.84;5152129;27;20054;-61
2023/02/20 11:23:48;;;;;;;17.25;11.98;;;;;;;9.50;65.83;100915.47;5139987;27;20049;-61
2023/02/20 11:26:34;;;;;;;14.05;10.93;;;;;;;9.72;65.91;100900.16;5118786;27;20053;-64
2023/02/20 11:35:25;;;;;;;17.90;12.02;;;;;;;9.80;64.87;100863.34;5145153;27;20057;-61
2023/02/20 11:38:26;;;;;;;14.27;10.75;;;;;;;9.85;64.71;100870.78;5152170;27;20046;-61
2023/02/20 11:41:27;;;;;;;15.63;11.80;;;;;;;10.01;64.35;100858.31;5144875;27;20042;-61
2023/02/20 11:47:29;;;;;;;14.57;10.77;;;;;;;10.00;65.29;100878.09;5049381;28;20521;-61
2023/02/20 11:50:20;;;;;;;13.40;10.48;;;;;;;10.07;64.63;100887.72;5102945;27;20412;-61
2023/02/20 11:53:03;;;;;;;15.38;9.93;;;;;;;10.10;64.50;100876.00;5157491;27;20055;-61
2023/02/20 11:58:28;;;;;;;14.23;10.45;;;;;;;10.20;63.95;100877.78;5146480;27;20440;-62
2023/02/20 12:00:57;;;;;;;13.98;10.75;;;;;;;10.33;63.42;100881.78;5148847;27;20058;-61
2023/02/20 12:03:27;;;;;;;15.55;10.70;;;;;;;10.33;63.57;100898.50;5144456;27;20526;-61
2023/02/20 12:05:56;;;;;;;15.55;11.40;;;;;;;10.31;63.45;100897.97;5143410;27;20046;-61
2023/02/20 12:08:53;;;;;;;;;;;;;;;;;;;;;
2023/02/20 12:11:31;;;;;;;16.00;12.27;;;;;;;10.07;64.69;100909.16;5135857;27;20058;-61
2023/02/20 12:14:06;;;;;;;18.85;12.10;;;;;;;9.99;64.36;100920.97;5141487;27;20042;-61
2023/02/20 12:17:05;;;;;;;16.23;12.45;;;;;;;10.01;65.25;100915.94;5137109;27;20407;-61
2023/02/20 12:19:57;;;;;;;17.95;13.13;;;;;;;10.06;64.35;100921.44;5146440;27;20039;-61
2023/02/20 12:22:33;;;;;;;18.15;13.52;;;;;;;9.88;65.51;100909.16;5143299;27;20062;-60
2023/02/20 12:25:25;;;;;;;16.95;11.85;;;;;;;9.84;65.75;100933.13;5145025;27;20051;-60
2023/02/20 12:28:17;;;;;;;16.55;12.05;;;;;;;9.90;65.60;100935.53;5156673;27;20046;-60
2023/02/20 12:30:56;;;;;;;19.38;12.57;;;;;;;9.89;64.85;100928.34;5157182;27;20058;-61
2023/02/20 12:34:14;;;;;;;16.63;12.18;;;;;;;9.83;65.57;100914.78;5153015;27;20046;-61
2023/02/20 12:36:51;;;;;;;21.85;12.15;;;;;;;9.84;65.07;100936.72;5140199;27;20058;-60
2023/02/20 12:39:39;;;;;;;15.75;11.80;;;;;;;9.84;65.93;100933.13;5144551;27;20051;-61
2023/02/20 12:42:35;;;;;;;;;;;;;;;;;;;;;
2023/02/20 12:45:19;;;;;;;16.05;11.15;;;;;;;9.87;65.91;100907.47;5134711;27;20472;-61
2023/02/20 12:47:58;;;;;;;15.80;11.15;;;;;;;9.95;65.80;100913.22;5137161;27;20457;-61
2023/02/20 12:50:51;;;;;;;13.88;10.13;;;;;;;10.01;64.92;100891.69;5138911;27;20406;-61
2023/02/20 12:53:47;;;;;;;12.50;9.50;;;;;;;9.93;65.45;100886.81;5140107;27;20062;-65
2023/02/20 12:56:29;;;;;;;12.50;9.60;;;;;;;9.96;65.67;100873.13;5144567;27;20175;-61
2023/02/20 13:01:52;;;;;;;;;;;;;;;10.11;65.10;100841.44;5143482;27;20047;-60
2023/02/20 13:04:55;;;;;;;14.23;10.80;;;;;;;9.92;65.23;100849.81;5145495;27;20275;-60